Latest Weather Observations for Oakey

IDQ60801

Issued at 9:35 pm EST Wednesday 23 July 2014 (issued every 30 minutes, with the page automatically refreshed every 10 minutes)

About weather observations | Map of weather stations | Latest weather observations for QLD | Other Formats
Station Details ID: 041359 Name: OAKEY AERO Lat: -27.40 Lon: 151.74 Height: 405.69 m
Data from the previous 72 hours. | See also: Recent months at Oakey
Date/Time
EST
Temp
°C
App
Temp
°C
Dew
Point
Rel
Hum
%
Delta-T
°C
Wind Press
QNH
hPa
Press
MSL
hPa
Rain
since 9 am
mm
Dir
 
Spd
km/h
Gust
km/h
Spd
kts
Gust
kts
23/09:30pm 11.2 7.2 6.7 74 2.2 ENE 17 20 9 11 1022.5 - 0.0
23/09:00pm 10.8 6.9 5.3 69 2.6 ENE 15 19 8 10 1022.2 1022.4 0.0
23/08:30pm 11.0 7.0 5.1 67 2.8 ENE 15 17 8 9 1022.0 - 0.0
23/08:00pm 11.2 7.1 4.4 63 3.1 ENE 15 17 8 9 1021.6 - 0.0
23/07:30pm 12.7 8.4 5.1 60 3.6 ENE 17 20 9 11 1021.5 - 0.0
23/07:00pm 11.8 8.2 5.0 63 3.2 ENE 13 15 7 8 1021.1 - 0.0
23/06:30pm 12.6 8.6 5.1 60 3.5 ENE 15 19 8 10 1020.7 - 0.0
23/06:00pm 13.9 9.9 5.0 55 4.2 ENE 15 17 8 9 1020.7 1020.9 0.0
23/05:30pm 15.4 10.9 4.2 47 5.3 ENE 17 22 9 12 1020.5 - 0.0
23/05:00pm 16.8 12.4 4.5 44 5.9 ENE 17 19 9 10 1020.3 - 0.0
23/04:30pm 18.1 13.9 3.9 39 6.8 ENE 15 20 8 11 1019.8 - 0.0
23/04:00pm 19.2 14.9 3.4 35 7.6 ENE 15 19 8 10 1019.8 - 0.0
23/03:30pm 19.9 17.0 2.7 32 8.2 NW 7 11 4 6 1019.7 - 0.0
23/03:00pm 19.2 16.4 2.1 32 8.0 E 6 13 3 7 1019.8 1020.0 0.0
23/02:30pm 20.1 17.3 3.3 33 8.1 NNE 7 9 4 5 1020.1 - 0.0
23/02:00pm 19.6 17.6 4.5 37 7.4 NNW 4 9 2 5 1020.3 - 0.0
23/01:30pm 19.4 16.9 4.7 38 7.2 N 7 9 4 5 1020.5 - 0.0
23/01:00pm 19.4 17.1 4.7 38 7.2 WSW 6 11 3 6 1020.6 - 0.0
23/12:30pm 17.7 15.2 4.6 42 6.4 SE 7 11 4 6 1021.1 - 0.0
23/12:00pm 18.4 15.5 4.9 41 6.6 E 9 17 5 9 1021.5 1021.7 0.0
23/11:30am 17.5 15.1 5.4 45 6.0 N 7 13 4 7 1021.9 - 0.0
23/11:00am 17.7 15.0 5.6 45 6.0 ESE 9 15 5 8 1023.0 - 0.0
23/10:30am 16.9 14.8 6.7 51 5.1 E 7 13 4 7 1023.7 - 0.0
23/10:00am 16.2 14.3 7.7 57 4.4 ENE 7 13 4 7 1023.8 - 0.0
23/09:30am 14.0 12.4 8.6 70 2.8 S 7 13 4 7 1024.0 - 0.0
23/09:00am 12.6 11.0 8.7 77 2.0 SSE 7 11 4 6 1023.8 1024.0 0.0
23/08:30am 10.3 10.0 8.6 89 0.9 CALM 0 0 0 0 1023.6 - 0.0
23/08:00am 8.1 7.6 8.0 99 0.0 CALM 0 0 0 0 1023.2 - 0.0
23/07:30am 5.2 3.0 5.1 99 0.0 SSE 6 7 3 4 1023.0 - 0.0
23/07:00am 2.9 -0.3 2.8 99 0.0 SSE 9 9 5 5 1022.7 - 0.0
23/06:30am 2.9 0.0 2.6 98 0.1 SSE 7 9 4 5 1022.3 - 0.0
23/06:00am 2.7 -1.0 2.1 96 0.2 SE 11 11 6 6 1021.7 1021.9 0.0
23/05:30am 5.0 2.5 4.9 99 0.0 ENE 7 9 4 5 1021.4 - 0.0
23/05:00am 5.6 3.3 5.5 99 0.0 E 7 7 4 4 1021.2 - 0.0
23/04:49am 4.8 2.3 4.7 99 0.0 E 7 7 4 4 1021.1 - 0.0
23/04:47am 5.0 2.5 4.9 99 0.0 E 7 7 4 4 1021.1 - 0.0
23/04:30am 4.7 1.7 4.3 97 0.2 SE 9 11 5 6 1021.0 - 0.0
23/04:00am 4.9 2.0 4.5 97 0.2 SSE 9 11 5 6 1021.0 - 0.0
23/03:47am 6.1 3.8 5.7 97 0.2 E 7 7 4 4 1020.9 - 0.0
23/03:30am 6.1 3.1 5.8 98 0.1 ESE 11 13 6 7 1020.7 - 0.0
23/03:00am 6.7 3.8 6.4 98 0.1 SE 11 13 6 7 1021.0 1021.1 0.0
23/02:30am 5.5 2.7 5.1 97 0.2 SE 9 11 5 6 1021.1 - 0.0
23/02:00am 5.8 3.6 5.1 95 0.3 SSE 6 7 3 4 1021.2 - 0.0
23/01:30am 8.1 5.7 7.0 93 0.5 NE 9 11 5 6 1021.4 - 0.0
23/01:00am 8.2 6.1 6.7 90 0.7 NE 7 9 4 5 1021.5 - 0.0
23/12:30am 7.6 5.8 5.6 87 0.9 NE 4 7 2 4 1021.5 - 0.0
23/12:00am 7.4 5.3 5.7 89 0.8 NNE 6 7 3 4 1021.5 1021.7 0.0
 
Date/Time
EST
Temp
°C
App
Temp
°C
Dew
Point
Rel
Hum
%
Delta-T
°C
Wind Press
QNH
hPa
Press
MSL
hPa
Rain
since 9 am
mm
Dir
 
Spd
km/h
Gust
km/h
Spd
kts
Gust
kts
22/11:30pm 8.5 6.0 6.6 88 0.9 ENE 9 13 5 7 1021.8 - 0.0
22/11:00pm 7.6 4.4 4.9 83 1.2 ENE 11 13 6 7 1021.8 - 0.0
22/10:30pm 9.4 7.6 7.3 87 1.0 ENE 6 9 3 5 1021.9 - 0.0
22/10:00pm 8.8 6.2 6.2 84 1.2 ENE 9 13 5 7 1021.9 - 0.0
22/09:30pm 10.1 7.3 6.8 80 1.6 NE 11 15 6 8 1022.0 - 0.0
22/09:00pm 10.1 7.5 6.3 77 1.8 NNE 9 11 5 6 1022.1 1022.3 0.0
22/08:30pm 10.3 7.7 6.1 75 2.0 ENE 9 11 5 6 1021.8 - 0.0
22/08:00pm 9.1 6.5 4.1 71 2.2 NNW 7 11 4 6 1021.6 - 0.0
22/07:30pm 10.3 6.8 3.3 62 3.1 SE 11 13 6 7 1021.4 - 0.0
22/07:00pm 10.5 6.0 2.4 57 3.5 E 15 19 8 10 1021.1 - 0.0
22/06:30pm 11.8 8.9 1.2 48 4.6 SSW 6 6 3 3 1020.5 - 0.0
22/06:00pm 13.3 9.4 1.3 44 5.2 SW 11 11 6 6 1020.0 1020.2 0.0
22/05:30pm 14.8 10.7 2.0 42 5.8 WSW 13 15 7 8 1019.6 - 0.0
22/05:00pm 17.0 12.0 1.4 35 7.1 WSW 17 19 9 10 1019.5 - 0.0
22/04:30pm 18.9 13.8 1.0 30 8.2 SW 17 20 9 11 1019.3 - 0.0
22/04:00pm 19.6 14.3 1.6 30 8.4 SW 19 28 10 15 1019.2 - 0.0
22/03:30pm 19.7 14.2 2.1 31 8.3 WSW 20 30 11 16 1019.0 - 0.0
22/03:00pm 19.8 14.0 2.2 31 8.3 WSW 22 30 12 16 1019.0 1019.1 0.0
22/02:30pm 18.9 14.2 3.1 35 7.5 W 17 22 9 12 1018.9 - 0.0
22/02:00pm 20.2 17.5 3.9 34 8.0 N 7 19 4 10 1019.2 - 0.0
22/01:30pm 18.4 15.1 6.6 46 6.0 WSW 13 22 7 12 1019.4 - 0.0
22/01:00pm 19.1 16.2 8.1 49 5.8 W 13 19 7 10 1019.8 - 0.0
22/12:30pm 18.9 16.5 8.6 51 5.5 W 11 20 6 11 1020.2 - 0.0
22/12:00pm 18.5 16.6 9.0 54 5.0 SSW 9 17 5 9 1021.0 1021.1 0.0
22/11:30am 18.0 15.7 9.1 56 4.7 NW 11 17 6 9 1021.6 - 0.0
22/11:00am 17.2 15.4 9.6 61 4.1 WNW 9 15 5 8 1022.2 - 0.0
22/10:30am 16.2 14.8 9.6 65 3.5 ENE 7 11 4 6 1022.5 - 0.0
22/10:00am 15.5 13.7 10.7 73 2.6 NE 11 15 6 8 1022.8 - 0.0
22/09:30am 14.3 12.5 10.9 80 1.8 ENE 11 17 6 9 1022.9 - 0.0
22/09:23am 13.6 11.7 10.6 82 1.6 ENE 11 17 6 9 1023.0 - 0.0
22/09:00am 12.5 10.8 11.2 92 0.7 ENE 11 17 6 9 1023.1 1023.3 0.0
22/08:30am 11.6 10.0 11.4 99 0.1 ENE 11 13 6 7 1023.0 - 0.0
22/08:00am 10.5 8.5 10.3 99 0.1 ENE 11 13 6 7 1022.9 - 0.0
22/07:30am 7.3 5.5 7.2 99 0.0 ENE 6 9 3 5 1022.7 - 0.0
22/07:21am 6.8 4.7 6.7 99 0.0 ENE 7 9 4 5 1022.7 - 0.0
22/07:00am 5.3 3.1 5.2 99 0.0 ENE 6 7 3 4 1022.3 - 0.0
22/06:50am 5.1 2.8 5.0 99 0.0 ENE 6 9 3 5 1022.2 - 0.0
22/06:44am 5.4 4.0 5.3 99 0.0 ENE 2 7 1 4 1022.1 - 0.0
22/06:30am 4.7 3.4 4.3 97 0.2 CALM 0 0 0 0 1022.0 - 0.0
22/06:00am 4.6 3.2 3.7 94 0.4 CALM 0 0 0 0 1021.7 1021.9 0.0
22/05:31am 7.4 6.7 7.1 98 0.1 CALM 0 0 0 0 1021.5 - 0.0
22/05:30am 7.4 6.7 7.1 98 0.1 CALM 0 0 0 0 1021.5 - 0.0
22/05:00am 7.1 6.3 6.5 96 0.3 CALM 0 6 0 3 1021.2 - 0.0
22/04:54am 7.5 6.8 7.1 97 0.2 CALM 0 6 0 3 1021.2 - 0.0
22/04:30am 8.3 5.3 7.5 95 0.4 ENE 13 15 7 8 1021.1 - 0.0
22/04:00am 9.9 6.3 9.8 99 0.1 ENE 19 24 10 13 1021.1 - 0.0
22/03:50am 9.1 5.7 9.0 99 0.1 ENE 17 20 9 11 1021.2 - 0.0
22/03:30am 6.9 3.7 6.8 99 0.0 ENE 13 15 7 8 1021.2 - 0.0
22/03:00am 5.8 2.2 4.9 94 0.4 E 13 13 7 7 1021.3 1021.5 0.0
22/02:56am 5.8 2.5 4.6 92 0.5 E 11 13 6 7 1021.3 - 0.0
22/02:30am 8.0 4.9 7.2 95 0.4 ENE 13 15 7 8 1021.4 - 0.0
22/02:00am 8.8 5.5 8.0 95 0.4 ENE 15 17 8 9 1021.2 - 0.0
22/01:30am 9.2 6.3 8.1 93 0.5 ENE 13 17 7 9 1021.6 - 0.0
22/01:00am 9.2 5.8 7.8 91 0.7 ENE 15 19 8 10 1021.7 - 0.0
22/12:30am 10.3 7.1 8.6 89 0.9 ENE 15 17 8 9 1021.8 - 0.0
22/12:00am 11.2 7.9 9.5 89 0.9 ENE 17 20 9 11 1021.9 1022.1 0.0
 
Date/Time
EST
Temp
°C
App
Temp
°C
Dew
Point
Rel
Hum
%
Delta-T
°C
Wind Press
QNH
hPa
Press
MSL
hPa
Rain
since 9 am
mm
Dir
 
Spd
km/h
Gust
km/h
Spd
kts
Gust
kts
21/11:30pm 10.4 7.6 8.5 88 1.0 ENE 13 17 7 9 1022.2 - 0.0
21/11:00pm 10.8 7.8 9.1 89 0.9 ENE 15 17 8 9 1022.4 - 0.0
21/10:30pm 10.7 8.2 8.3 85 1.2 ENE 11 13 6 7 1022.6 - 0.0
21/10:00pm 10.9 7.5 9.0 88 1.0 ENE 17 19 9 10 1022.7 - 0.0
21/09:30pm 9.0 6.1 6.4 84 1.2 NE 11 13 6 7 1022.7 - 0.0
21/09:00pm 9.5 6.3 6.8 83 1.3 NE 13 15 7 8 1022.5 1022.7 0.0
21/08:30pm 11.2 7.6 8.2 82 1.5 ENE 17 19 9 10 1022.3 - 0.0
21/08:00pm 10.2 6.9 6.4 77 1.8 ENE 13 17 7 9 1021.9 - 0.0
21/07:30pm 9.8 6.0 5.6 75 2.0 ENE 15 17 8 9 1021.6 - 0.0
21/07:00pm 10.8 6.7 6.2 73 2.2 NE 17 19 9 10 1021.5 - 0.0
21/06:30pm 12.6 9.1 7.3 70 2.6 ENE 15 17 8 9 1021.3 - 0.0
21/06:00pm 13.7 10.7 7.5 66 3.1 ENE 13 17 7 9 1021.1 1021.2 0.0
21/05:30pm 13.7 10.2 7.0 64 3.3 ENE 15 17 8 9 1020.6 - 0.0
21/05:00pm 16.0 12.9 7.2 56 4.5 ENE 13 17 7 9 1020.5 - 0.0
21/04:30pm 17.9 13.2 7.6 51 5.3 ENE 22 28 12 15 1020.3 - 0.0
21/04:00pm 19.8 16.5 7.9 46 6.3 E 15 20 8 11 1020.1 - 0.0
21/03:30pm 18.4 14.2 7.5 49 5.6 ENE 19 24 10 13 1020.0 - 0.0
21/03:00pm 18.6 15.5 7.1 47 5.9 ENE 13 20 7 11 1019.9 1020.1 0.0
21/02:30pm 18.6 14.7 7.1 47 5.9 ENE 17 24 9 13 1019.9 - 0.0
21/02:00pm 19.2 16.3 6.7 44 6.4 ESE 11 15 6 8 1020.1 - 0.0
21/01:30pm 20.1 17.2 8.1 46 6.3 ESE 13 20 7 11 1020.3 - 0.0
21/01:00pm 19.4 16.0 7.5 46 6.2 E 15 22 8 12 1020.5 - 0.0
21/12:30pm 17.7 15.3 6.9 49 5.5 E 9 24 5 13 1021.1 - 0.0
21/12:00pm 18.3 14.1 7.4 49 5.6 ESE 19 22 10 12 1021.6 1021.8 0.0
21/11:30am 17.7 14.2 7.4 51 5.3 ENE 15 22 8 12 1022.4 - 0.0
21/11:00am 17.6 14.4 8.5 55 4.8 ENE 15 22 8 12 1023.0 - 0.0
21/10:30am 16.9 14.4 8.3 57 4.5 E 11 19 6 10 1023.5 - 0.0
21/10:00am 15.3 13.5 7.3 59 4.0 SSE 6 9 3 5 1023.9 - 0.0
21/09:30am 13.4 11.8 6.5 63 3.4 SW 4 7 2 4 1024.0 - 0.0
21/09:00am 11.0 8.8 5.5 69 2.6 S 6 9 3 5 1024.1 1024.3 -
21/08:30am 8.8 6.3 4.8 76 1.8 E 7 9 4 5 1024.0 - -
21/08:00am 6.2 3.7 3.5 83 1.2 NE 6 7 3 4 1023.9 - -
21/07:30am 2.8 -0.7 1.5 91 0.5 SE 9 9 5 5 1023.8 - -
21/07:00am 0.3 -2.6 -1.4 88 0.6 NNE 4 6 2 3 1023.3 - -
21/06:55am 0.1 -3.2 -1.5 89 0.6 NE 6 7 3 4 1023.2 - -

Other Formats:

Comma delimited format used in spreadsheet applications
http://www.bom.gov.au/fwo/IDQ60801/IDQ60801.94552.axf

JavaScript Object Notation format (JSON) in row-major order
http://www.bom.gov.au/fwo/IDQ60801/IDQ60801.94552.json